sensor_id;sensor_type;location;lat;lon;timestamp;P1;durP1;ratioP1;P2;durP2;ratioP2
8462;SDS011;4268;52.506;13.462;2023-08-30T00:02:03;27.00;;;25.70;;
8462;SDS011;4268;52.506;13.462;2023-08-30T00:04:30;27.50;;;26.13;;
8462;SDS011;4268;52.506;13.462;2023-08-30T00:06:55;32.67;;;30.87;;
8462;SDS011;4268;52.506;13.462;2023-08-30T00:09:21;33.67;;;31.83;;
8462;SDS011;4268;52.506;13.462;2023-08-30T00:11:46;30.23;;;28.77;;
8462;SDS011;4268;52.506;13.462;2023-08-30T00:14:12;31.03;;;29.63;;
8462;SDS011;4268;52.506;13.462;2023-08-30T00:16:37;32.30;;;30.60;;
8462;SDS011;4268;52.506;13.462;2023-08-30T00:19:05;35.27;;;33.57;;
8462;SDS011;4268;52.506;13.462;2023-08-30T00:21:31;33.87;;;32.23;;
8462;SDS011;4268;52.506;13.462;2023-08-30T00:23:56;31.10;;;29.60;;
8462;SDS011;4268;52.506;13.462;2023-08-30T00:26:22;34.13;;;32.53;;
8462;SDS011;4268;52.506;13.462;2023-08-30T00:28:47;34.30;;;32.60;;
8462;SDS011;4268;52.506;13.462;2023-08-30T00:31:13;34.90;;;33.20;;
8462;SDS011;4268;52.506;13.462;2023-08-30T00:33:39;35.37;;;33.67;;
8462;SDS011;4268;52.506;13.462;2023-08-30T00:36:04;35.43;;;33.73;;
8462;SDS011;4268;52.506;13.462;2023-08-30T00:38:30;35.33;;;33.63;;
8462;SDS011;4268;52.506;13.462;2023-08-30T00:40:58;35.17;;;33.47;;
8462;SDS011;4268;52.506;13.462;2023-08-30T00:43:23;34.50;;;32.80;;
8462;SDS011;4268;52.506;13.462;2023-08-30T00:45:49;34.73;;;33.00;;
8462;SDS011;4268;52.506;13.462;2023-08-30T00:48:15;33.97;;;32.37;;
8462;SDS011;4268;52.506;13.462;2023-08-30T00:50:43;37.57;;;35.53;;
8462;SDS011;4268;52.506;13.462;2023-08-30T00:53:09;34.87;;;33.13;;
8462;SDS011;4268;52.506;13.462;2023-08-30T00:55:36;34.70;;;33.00;;
8462;SDS011;4268;52.506;13.462;2023-08-30T00:58:02;35.77;;;34.07;;
8462;SDS011;4268;52.506;13.462;2023-08-30T01:00:32;34.50;;;32.80;;
8462;SDS011;4268;52.506;13.462;2023-08-30T01:02:58;34.73;;;33.03;;
8462;SDS011;4268;52.506;13.462;2023-08-30T01:05:24;33.70;;;32.00;;
8462;SDS011;4268;52.506;13.462;2023-08-30T01:07:50;33.67;;;31.97;;
8462;SDS011;4268;52.506;13.462;2023-08-30T01:10:17;34.63;;;32.93;;
8462;SDS011;4268;52.506;13.462;2023-08-30T01:12:48;34.60;;;32.90;;
8462;SDS011;4268;52.506;13.462;2023-08-30T01:15:19;33.20;;;31.60;;
8462;SDS011;4268;52.506;13.462;2023-08-30T01:17:45;33.80;;;32.13;;
8462;SDS011;4268;52.506;13.462;2023-08-30T01:20:13;34.63;;;32.93;;
8462;SDS011;4268;52.506;13.462;2023-08-30T01:22:55;34.13;;;32.53;;
8462;SDS011;4268;52.506;13.462;2023-08-30T01:25:29;36.50;;;34.70;;
8462;SDS011;4268;52.506;13.462;2023-08-30T01:28:05;35.80;;;34.07;;
8462;SDS011;4268;52.506;13.462;2023-08-30T01:30:32;35.53;;;33.83;;
8462;SDS011;4268;52.506;13.462;2023-08-30T01:33:00;36.23;;;34.43;;
8462;SDS011;4268;52.506;13.462;2023-08-30T01:35:26;36.10;;;34.33;;
8462;SDS011;4268;52.506;13.462;2023-08-30T01:37:57;35.47;;;33.67;;
8462;SDS011;4268;52.506;13.462;2023-08-30T01:40:24;36.07;;;34.37;;
8462;SDS011;4268;52.506;13.462;2023-08-30T01:42:53;37.17;;;35.37;;
8462;SDS011;4268;52.506;13.462;2023-08-30T01:45:20;36.77;;;34.97;;
8462;SDS011;4268;52.506;13.462;2023-08-30T01:47:46;37.57;;;35.77;;
8462;SDS011;4268;52.506;13.462;2023-08-30T01:50:13;38.23;;;36.33;;
8462;SDS011;4268;52.506;13.462;2023-08-30T01:52:40;34.13;;;32.47;;
8462;SDS011;4268;52.506;13.462;2023-08-30T01:55:07;36.80;;;35.10;;
8462;SDS011;4268;52.506;13.462;2023-08-30T01:57:33;34.13;;;32.47;;
8462;SDS011;4268;52.506;13.462;2023-08-30T01:59:59;34.77;;;33.07;;
8462;SDS011;4268;52.506;13.462;2023-08-30T02:02:28;35.57;;;33.87;;
8462;SDS011;4268;52.506;13.462;2023-08-30T02:04:54;33.83;;;32.20;;
8462;SDS011;4268;52.506;13.462;2023-08-30T02:07:25;34.23;;;32.53;;
8462;SDS011;4268;52.506;13.462;2023-08-30T02:10:00;34.03;;;32.33;;
8462;SDS011;4268;52.506;13.462;2023-08-30T02:12:31;33.10;;;31.30;;
8462;SDS011;4268;52.506;13.462;2023-08-30T02:15:10;31.37;;;29.87;;
8462;SDS011;4268;52.506;13.462;2023-08-30T02:17:38;30.57;;;29.07;;
8462;SDS011;4268;52.506;13.462;2023-08-30T02:20:04;29.80;;;28.23;;
8462;SDS011;4268;52.506;13.462;2023-08-30T02:22:31;28.93;;;27.57;;
8462;SDS011;4268;52.506;13.462;2023-08-30T02:24:58;30.63;;;29.10;;
8462;SDS011;4268;52.506;13.462;2023-08-30T02:27:24;30.13;;;28.70;;
8462;SDS011;4268;52.506;13.462;2023-08-30T02:29:49;29.57;;;28.13;;
8462;SDS011;4268;52.506;13.462;2023-08-30T02:32:15;31.33;;;29.70;;
8462;SDS011;4268;52.506;13.462;2023-08-30T02:34:45;30.97;;;29.47;;
8462;SDS011;4268;52.506;13.462;2023-08-30T02:37:12;30.40;;;28.97;;
8462;SDS011;4268;52.506;13.462;2023-08-30T02:39:37;29.47;;;28.07;;
8462;SDS011;4268;52.506;13.462;2023-08-30T02:42:03;27.97;;;26.47;;
8462;SDS011;4268;52.506;13.462;2023-08-30T02:44:28;28.10;;;26.77;;
8462;SDS011;4268;52.506;13.462;2023-08-30T02:51:57;25.83;;;24.53;;
8462;SDS011;4268;52.506;13.462;2023-08-30T02:54:22;28.00;;;26.63;;
8462;SDS011;4268;52.506;13.462;2023-08-30T02:56:48;26.93;;;25.63;;
8462;SDS011;4268;52.506;13.462;2023-08-30T02:59:14;27.57;;;26.27;;
8462;SDS011;4268;52.506;13.462;2023-08-30T03:01:40;27.47;;;26.17;;
8462;SDS011;4268;52.506;13.462;2023-08-30T03:04:05;26.60;;;25.30;;
8462;SDS011;4268;52.506;13.462;2023-08-30T03:06:35;27.77;;;26.27;;
8462;SDS011;4268;52.506;13.462;2023-08-30T03:09:01;27.97;;;26.57;;
8462;SDS011;4268;52.506;13.462;2023-08-30T03:11:31;27.13;;;25.73;;
8462;SDS011;4268;52.506;13.462;2023-08-30T03:13:56;28.17;;;26.83;;
8462;SDS011;4268;52.506;13.462;2023-08-30T03:16:22;30.47;;;28.97;;
8462;SDS011;4268;52.506;13.462;2023-08-30T03:18:47;29.43;;;28.03;;
8462;SDS011;4268;52.506;13.462;2023-08-30T03:21:13;29.70;;;28.20;;
8462;SDS011;4268;52.506;13.462;2023-08-30T03:23:39;29.93;;;28.53;;
8462;SDS011;4268;52.506;13.462;2023-08-30T03:26:12;29.93;;;28.37;;
8462;SDS011;4268;52.506;13.462;2023-08-30T03:28:40;28.03;;;26.73;;
8462;SDS011;4268;52.506;13.462;2023-08-30T03:31:18;28.77;;;27.33;;
8462;SDS011;4268;52.506;13.462;2023-08-30T03:33:45;27.53;;;26.23;;
8462;SDS011;4268;52.506;13.462;2023-08-30T03:36:12;26.60;;;25.37;;
8462;SDS011;4268;52.506;13.462;2023-08-30T03:38:39;28.53;;;27.13;;
8462;SDS011;4268;52.506;13.462;2023-08-30T03:41:05;29.90;;;28.30;;
8462;SDS011;4268;52.506;13.462;2023-08-30T03:43:31;28.70;;;27.37;;
8462;SDS011;4268;52.506;13.462;2023-08-30T03:45:57;28.33;;;26.97;;
8462;SDS011;4268;52.506;13.462;2023-08-30T03:48:24;27.00;;;25.70;;
8462;SDS011;4268;52.506;13.462;2023-08-30T03:50:49;28.60;;;27.07;;
8462;SDS011;4268;52.506;13.462;2023-08-30T03:53:15;27.30;;;26.00;;
8462;SDS011;4268;52.506;13.462;2023-08-30T03:55:40;27.60;;;26.17;;
8462;SDS011;4268;52.506;13.462;2023-08-30T03:58:06;29.20;;;27.47;;
8462;SDS011;4268;52.506;13.462;2023-08-30T04:00:33;26.37;;;25.10;;
8462;SDS011;4268;52.506;13.462;2023-08-30T04:03:01;25.97;;;24.67;;
8462;SDS011;4268;52.506;13.462;2023-08-30T04:05:27;29.40;;;27.97;;
8462;SDS011;4268;52.506;13.462;2023-08-30T04:07:56;28.70;;;27.30;;
8462;SDS011;4268;52.506;13.462;2023-08-30T04:10:22;28.13;;;26.73;;
8462;SDS011;4268;52.506;13.462;2023-08-30T04:12:47;26.87;;;25.57;;
8462;SDS011;4268;52.506;13.462;2023-08-30T04:15:13;27.67;;;26.33;;
8462;SDS011;4268;52.506;13.462;2023-08-30T04:17:40;26.27;;;24.97;;
8462;SDS011;4268;52.506;13.462;2023-08-30T04:20:05;27.07;;;25.77;;
8462;SDS011;4268;52.506;13.462;2023-08-30T04:22:31;26.87;;;25.57;;
8462;SDS011;4268;52.506;13.462;2023-08-30T04:24:59;26.10;;;24.80;;
8462;SDS011;4268;52.506;13.462;2023-08-30T04:27:25;25.80;;;24.60;;
8462;SDS011;4268;52.506;13.462;2023-08-30T04:29:51;26.90;;;25.60;;
8462;SDS011;4268;52.506;13.462;2023-08-30T04:32:17;25.77;;;24.57;;
8462;SDS011;4268;52.506;13.462;2023-08-30T04:34:43;26.57;;;25.20;;
8462;SDS011;4268;52.506;13.462;2023-08-30T04:37:08;25.97;;;24.67;;
8462;SDS011;4268;52.506;13.462;2023-08-30T04:39:33;25.17;;;23.97;;
8462;SDS011;4268;52.506;13.462;2023-08-30T04:41:59;24.53;;;23.33;;
8462;SDS011;4268;52.506;13.462;2023-08-30T04:44:25;24.97;;;23.77;;
8462;SDS011;4268;52.506;13.462;2023-08-30T04:46:52;25.37;;;24.07;;
8462;SDS011;4268;52.506;13.462;2023-08-30T04:49:18;25.20;;;23.90;;
8462;SDS011;4268;52.506;13.462;2023-08-30T04:51:44;24.33;;;23.13;;
8462;SDS011;4268;52.506;13.462;2023-08-30T04:54:10;25.47;;;24.17;;
8462;SDS011;4268;52.506;13.462;2023-08-30T04:56:35;25.00;;;23.77;;
8462;SDS011;4268;52.506;13.462;2023-08-30T04:59:00;25.20;;;24.00;;
8462;SDS011;4268;52.506;13.462;2023-08-30T05:01:28;25.57;;;24.27;;
8462;SDS011;4268;52.506;13.462;2023-08-30T05:03:54;25.70;;;24.40;;
8462;SDS011;4268;52.506;13.462;2023-08-30T05:06:20;25.30;;;24.07;;
8462;SDS011;4268;52.506;13.462;2023-08-30T05:08:45;22.27;;;21.20;;
8462;SDS011;4268;52.506;13.462;2023-08-30T05:11:11;21.03;;;19.97;;
8462;SDS011;4268;52.506;13.462;2023-08-30T05:13:36;20.83;;;19.83;;
8462;SDS011;4268;52.506;13.462;2023-08-30T05:16:02;18.00;;;17.10;;
8462;SDS011;4268;52.506;13.462;2023-08-30T05:18:28;16.97;;;16.07;;
8462;SDS011;4268;52.506;13.462;2023-08-30T05:20:53;14.70;;;14.00;;
8462;SDS011;4268;52.506;13.462;2023-08-30T05:23:19;13.50;;;12.80;;
8462;SDS011;4268;52.506;13.462;2023-08-30T05:25:44;11.90;;;11.20;;
8462;SDS011;4268;52.506;13.462;2023-08-30T05:28:10;11.97;;;11.37;;
8462;SDS011;4268;52.506;13.462;2023-08-30T05:30:35;10.93;;;10.33;;
8462;SDS011;4268;52.506;13.462;2023-08-30T05:33:01;10.37;;;9.77;;
8462;SDS011;4268;52.506;13.462;2023-08-30T05:35:27;11.43;;;10.63;;
8462;SDS011;4268;52.506;13.462;2023-08-30T05:37:52;9.73;;;9.13;;
8462;SDS011;4268;52.506;13.462;2023-08-30T05:40:18;9.13;;;8.60;;
8462;SDS011;4268;52.506;13.462;2023-08-30T05:42:43;12.93;;;12.23;;
8462;SDS011;4268;52.506;13.462;2023-08-30T05:45:10;9.43;;;8.60;;
8462;SDS011;4268;52.506;13.462;2023-08-30T05:47:35;8.57;;;8.03;;
8462;SDS011;4268;52.506;13.462;2023-08-30T05:50:01;8.70;;;8.20;;
8462;SDS011;4268;52.506;13.462;2023-08-30T05:52:27;8.90;;;8.30;;
8462;SDS011;4268;52.506;13.462;2023-08-30T05:54:52;7.90;;;7.43;;
8462;SDS011;4268;52.506;13.462;2023-08-30T05:57:18;7.90;;;7.40;;
8462;SDS011;4268;52.506;13.462;2023-08-30T05:59:43;7.50;;;6.97;;
8462;SDS011;4268;52.506;13.462;2023-08-30T06:02:09;7.07;;;6.57;;
8462;SDS011;4268;52.506;13.462;2023-08-30T06:04:35;8.30;;;7.73;;
8462;SDS011;4268;52.506;13.462;2023-08-30T06:07:00;7.53;;;6.67;;
8462;SDS011;4268;52.506;13.462;2023-08-30T06:09:26;7.00;;;5.43;;
8462;SDS011;4268;52.506;13.462;2023-08-30T06:11:52;6.37;;;5.90;;
8462;SDS011;4268;52.506;13.462;2023-08-30T06:14:17;6.20;;;5.70;;
8462;SDS011;4268;52.506;13.462;2023-08-30T06:16:42;6.03;;;5.53;;
8462;SDS011;4268;52.506;13.462;2023-08-30T06:19:09;5.90;;;5.40;;
8462;SDS011;4268;52.506;13.462;2023-08-30T06:21:35;5.40;;;4.90;;
8462;SDS011;4268;52.506;13.462;2023-08-30T06:24:01;4.93;;;4.53;;
8462;SDS011;4268;52.506;13.462;2023-08-30T06:26:26;5.63;;;5.13;;
8462;SDS011;4268;52.506;13.462;2023-08-30T06:28:52;6.37;;;5.00;;
8462;SDS011;4268;52.506;13.462;2023-08-30T06:31:17;6.47;;;5.10;;
8462;SDS011;4268;52.506;13.462;2023-08-30T06:33:43;6.33;;;5.83;;
8462;SDS011;4268;52.506;13.462;2023-08-30T06:36:09;5.97;;;5.47;;
8462;SDS011;4268;52.506;13.462;2023-08-30T06:38:36;5.50;;;5.10;;
8462;SDS011;4268;52.506;13.462;2023-08-30T06:41:02;6.53;;;5.90;;
8462;SDS011;4268;52.506;13.462;2023-08-30T06:43:27;6.17;;;5.60;;
8462;SDS011;4268;52.506;13.462;2023-08-30T06:45:53;6.20;;;5.60;;
8462;SDS011;4268;52.506;13.462;2023-08-30T06:48:18;6.07;;;5.57;;
8462;SDS011;4268;52.506;13.462;2023-08-30T06:50:44;6.37;;;5.77;;
8462;SDS011;4268;52.506;13.462;2023-08-30T06:53:09;8.70;;;6.43;;
8462;SDS011;4268;52.506;13.462;2023-08-30T06:55:35;6.60;;;5.63;;
8462;SDS011;4268;52.506;13.462;2023-08-30T06:58:02;6.23;;;5.63;;
8462;SDS011;4268;52.506;13.462;2023-08-30T07:00:27;5.97;;;5.10;;
8462;SDS011;4268;52.506;13.462;2023-08-30T07:02:53;5.43;;;5.00;;
8462;SDS011;4268;52.506;13.462;2023-08-30T07:05:19;5.10;;;4.80;;
8462;SDS011;4268;52.506;13.462;2023-08-30T07:07:44;4.27;;;3.87;;
8462;SDS011;4268;52.506;13.462;2023-08-30T07:10:10;3.93;;;3.63;;
8462;SDS011;4268;52.506;13.462;2023-08-30T07:12:35;4.10;;;3.90;;
8462;SDS011;4268;52.506;13.462;2023-08-30T07:15:01;4.17;;;3.87;;
8462;SDS011;4268;52.506;13.462;2023-08-30T07:17:28;4.17;;;3.43;;
8462;SDS011;4268;52.506;13.462;2023-08-30T07:19:53;3.57;;;3.10;;
8462;SDS011;4268;52.506;13.462;2023-08-30T07:22:19;4.97;;;3.40;;
8462;SDS011;4268;52.506;13.462;2023-08-30T07:24:44;3.87;;;3.50;;
8462;SDS011;4268;52.506;13.462;2023-08-30T07:27:10;3.23;;;3.03;;
8462;SDS011;4268;52.506;13.462;2023-08-30T07:29:37;3.23;;;2.90;;
8462;SDS011;4268;52.506;13.462;2023-08-30T07:32:05;3.27;;;3.00;;
8462;SDS011;4268;52.506;13.462;2023-08-30T07:34:31;3.23;;;2.90;;
8462;SDS011;4268;52.506;13.462;2023-08-30T07:36:57;2.90;;;2.70;;
8462;SDS011;4268;52.506;13.462;2023-08-30T07:39:22;3.10;;;2.90;;
8462;SDS011;4268;52.506;13.462;2023-08-30T07:41:48;3.50;;;3.00;;
8462;SDS011;4268;52.506;13.462;2023-08-30T07:44:14;3.07;;;2.87;;
8462;SDS011;4268;52.506;13.462;2023-08-30T07:46:40;3.10;;;2.93;;
8462;SDS011;4268;52.506;13.462;2023-08-30T07:49:05;2.90;;;2.70;;
8462;SDS011;4268;52.506;13.462;2023-08-30T07:51:31;3.10;;;2.90;;
8462;SDS011;4268;52.506;13.462;2023-08-30T07:53:56;2.90;;;2.70;;
8462;SDS011;4268;52.506;13.462;2023-08-30T07:56:22;2.83;;;2.63;;
8462;SDS011;4268;52.506;13.462;2023-08-30T07:58:47;3.00;;;2.80;;
8462;SDS011;4268;52.506;13.462;2023-08-30T08:01:13;2.60;;;2.50;;
8462;SDS011;4268;52.506;13.462;2023-08-30T08:03:38;2.80;;;2.60;;
8462;SDS011;4268;52.506;13.462;2023-08-30T08:06:06;2.67;;;2.47;;
8462;SDS011;4268;52.506;13.462;2023-08-30T08:08:31;2.77;;;2.60;;
8462;SDS011;4268;52.506;13.462;2023-08-30T08:10:58;2.63;;;2.53;;
8462;SDS011;4268;52.506;13.462;2023-08-30T08:13:24;2.60;;;2.50;;
8462;SDS011;4268;52.506;13.462;2023-08-30T08:15:49;3.03;;;2.83;;
8462;SDS011;4268;52.506;13.462;2023-08-30T08:18:14;2.90;;;2.70;;
8462;SDS011;4268;52.506;13.462;2023-08-30T08:20:40;2.93;;;2.73;;
8462;SDS011;4268;52.506;13.462;2023-08-30T08:23:06;3.13;;;2.80;;
8462;SDS011;4268;52.506;13.462;2023-08-30T08:25:31;3.40;;;3.10;;
8462;SDS011;4268;52.506;13.462;2023-08-30T08:27:57;3.00;;;2.80;;
8462;SDS011;4268;52.506;13.462;2023-08-30T08:30:22;3.40;;;3.10;;
8462;SDS011;4268;52.506;13.462;2023-08-30T08:32:48;3.30;;;3.10;;
8462;SDS011;4268;52.506;13.462;2023-08-30T08:35:13;3.10;;;2.90;;
8462;SDS011;4268;52.506;13.462;2023-08-30T08:37:39;3.47;;;3.00;;
8462;SDS011;4268;52.506;13.462;2023-08-30T08:40:05;3.90;;;3.10;;
8462;SDS011;4268;52.506;13.462;2023-08-30T08:42:33;4.07;;;3.50;;
8462;SDS011;4268;52.506;13.462;2023-08-30T08:44:59;3.60;;;3.30;;
8462;SDS011;4268;52.506;13.462;2023-08-30T08:47:28;3.17;;;2.97;;
8462;SDS011;4268;52.506;13.462;2023-08-30T08:49:55;3.20;;;2.90;;
8462;SDS011;4268;52.506;13.462;2023-08-30T08:52:21;3.20;;;3.03;;
8462;SDS011;4268;52.506;13.462;2023-08-30T08:54:48;3.00;;;2.80;;
8462;SDS011;4268;52.506;13.462;2023-08-30T08:57:14;2.90;;;2.70;;
8462;SDS011;4268;52.506;13.462;2023-08-30T08:59:39;2.87;;;2.67;;
8462;SDS011;4268;52.506;13.462;2023-08-30T09:02:05;3.43;;;3.13;;
8462;SDS011;4268;52.506;13.462;2023-08-30T09:04:31;3.33;;;3.03;;
8462;SDS011;4268;52.506;13.462;2023-08-30T09:07:00;3.23;;;2.93;;
8462;SDS011;4268;52.506;13.462;2023-08-30T09:09:26;4.07;;;2.80;;
8462;SDS011;4268;52.506;13.462;2023-08-30T09:11:52;3.00;;;2.80;;
8462;SDS011;4268;52.506;13.462;2023-08-30T09:14:18;3.40;;;3.10;;
8462;SDS011;4268;52.506;13.462;2023-08-30T09:16:57;4.23;;;2.77;;
8462;SDS011;4268;52.506;13.462;2023-08-30T09:19:23;2.90;;;2.70;;
8462;SDS011;4268;52.506;13.462;2023-08-30T09:21:52;3.50;;;2.70;;
8462;SDS011;4268;52.506;13.462;2023-08-30T09:24:18;3.20;;;3.00;;
8462;SDS011;4268;52.506;13.462;2023-08-30T09:26:52;4.00;;;3.60;;
8462;SDS011;4268;52.506;13.462;2023-08-30T09:29:19;3.77;;;3.17;;
8462;SDS011;4268;52.506;13.462;2023-08-30T09:31:46;3.27;;;3.00;;
8462;SDS011;4268;52.506;13.462;2023-08-30T09:34:21;3.20;;;3.00;;
8462;SDS011;4268;52.506;13.462;2023-08-30T09:36:53;2.90;;;2.70;;
8462;SDS011;4268;52.506;13.462;2023-08-30T09:39:19;3.10;;;2.80;;
8462;SDS011;4268;52.506;13.462;2023-08-30T09:41:45;3.30;;;3.07;;
8462;SDS011;4268;52.506;13.462;2023-08-30T09:44:16;3.30;;;3.00;;
8462;SDS011;4268;52.506;13.462;2023-08-30T09:46:49;3.03;;;2.83;;
8462;SDS011;4268;52.506;13.462;2023-08-30T09:49:18;2.90;;;2.70;;
8462;SDS011;4268;52.506;13.462;2023-08-30T09:51:46;2.90;;;2.70;;
8462;SDS011;4268;52.506;13.462;2023-08-30T09:54:22;3.00;;;2.80;;
8462;SDS011;4268;52.506;13.462;2023-08-30T09:56:49;3.30;;;3.00;;
8462;SDS011;4268;52.506;13.462;2023-08-30T09:59:17;9.50;;;8.73;;
8462;SDS011;4268;52.506;13.462;2023-08-30T10:01:43;4.07;;;3.77;;
8462;SDS011;4268;52.506;13.462;2023-08-30T10:04:11;3.03;;;2.70;;
8462;SDS011;4268;52.506;13.462;2023-08-30T10:06:37;2.70;;;2.47;;
8462;SDS011;4268;52.506;13.462;2023-08-30T10:09:04;2.70;;;2.50;;
8462;SDS011;4268;52.506;13.462;2023-08-30T10:11:33;2.90;;;2.57;;
8462;SDS011;4268;52.506;13.462;2023-08-30T10:13:59;4.60;;;2.83;;
8462;SDS011;4268;52.506;13.462;2023-08-30T10:16:30;2.80;;;2.70;;
8462;SDS011;4268;52.506;13.462;2023-08-30T10:19:08;3.20;;;3.00;;
8462;SDS011;4268;52.506;13.462;2023-08-30T10:21:36;3.00;;;2.80;;
8462;SDS011;4268;52.506;13.462;2023-08-30T10:24:03;3.13;;;2.93;;
8462;SDS011;4268;52.506;13.462;2023-08-30T10:26:32;3.77;;;3.47;;
8462;SDS011;4268;52.506;13.462;2023-08-30T10:28:58;3.37;;;3.07;;
8462;SDS011;4268;52.506;13.462;2023-08-30T10:31:24;3.03;;;2.77;;
8462;SDS011;4268;52.506;13.462;2023-08-30T10:33:55;2.83;;;2.70;;
8462;SDS011;4268;52.506;13.462;2023-08-30T10:36:25;2.77;;;2.60;;
8462;SDS011;4268;52.506;13.462;2023-08-30T10:38:51;2.77;;;2.57;;
8462;SDS011;4268;52.506;13.462;2023-08-30T10:41:25;2.60;;;2.40;;
8462;SDS011;4268;52.506;13.462;2023-08-30T10:43:51;2.80;;;2.60;;
8462;SDS011;4268;52.506;13.462;2023-08-30T10:46:32;3.10;;;2.57;;
8462;SDS011;4268;52.506;13.462;2023-08-30T10:49:13;3.03;;;2.70;;
8462;SDS011;4268;52.506;13.462;2023-08-30T10:51:39;2.80;;;2.60;;
8462;SDS011;4268;52.506;13.462;2023-08-30T10:54:16;2.40;;;2.30;;
8462;SDS011;4268;52.506;13.462;2023-08-30T10:56:45;3.27;;;2.70;;
8462;SDS011;4268;52.506;13.462;2023-08-30T10:59:15;2.90;;;2.70;;
8462;SDS011;4268;52.506;13.462;2023-08-30T11:01:45;3.10;;;2.90;;
8462;SDS011;4268;52.506;13.462;2023-08-30T11:04:12;2.93;;;2.80;;
8462;SDS011;4268;52.506;13.462;2023-08-30T11:06:41;2.93;;;2.80;;
8462;SDS011;4268;52.506;13.462;2023-08-30T11:09:13;3.13;;;2.93;;
8462;SDS011;4268;52.506;13.462;2023-08-30T11:11:40;2.97;;;2.70;;
8462;SDS011;4268;52.506;13.462;2023-08-30T11:14:06;3.43;;;3.23;;
8462;SDS011;4268;52.506;13.462;2023-08-30T11:16:33;2.90;;;2.70;;
8462;SDS011;4268;52.506;13.462;2023-08-30T11:19:02;2.80;;;2.60;;
8462;SDS011;4268;52.506;13.462;2023-08-30T11:21:36;2.70;;;2.60;;
8462;SDS011;4268;52.506;13.462;2023-08-30T11:24:07;3.07;;;2.80;;
8462;SDS011;4268;52.506;13.462;2023-08-30T11:26:33;3.43;;;3.17;;
8462;SDS011;4268;52.506;13.462;2023-08-30T11:29:08;2.80;;;2.60;;
8462;SDS011;4268;52.506;13.462;2023-08-30T11:31:34;2.50;;;2.40;;
8462;SDS011;4268;52.506;13.462;2023-08-30T11:34:00;3.27;;;2.97;;
8462;SDS011;4268;52.506;13.462;2023-08-30T11:36:27;3.10;;;2.67;;
8462;SDS011;4268;52.506;13.462;2023-08-30T11:38:54;2.63;;;2.43;;
8462;SDS011;4268;52.506;13.462;2023-08-30T11:41:20;2.90;;;2.70;;
8462;SDS011;4268;52.506;13.462;2023-08-30T11:43:49;2.63;;;2.50;;
8462;SDS011;4268;52.506;13.462;2023-08-30T11:46:16;3.67;;;3.10;;
8462;SDS011;4268;52.506;13.462;2023-08-30T11:48:42;3.23;;;2.80;;
8462;SDS011;4268;52.506;13.462;2023-08-30T11:51:09;2.83;;;2.43;;
8462;SDS011;4268;52.506;13.462;2023-08-30T11:53:35;2.73;;;2.63;;
8462;SDS011;4268;52.506;13.462;2023-08-30T11:56:03;2.83;;;2.67;;
8462;SDS011;4268;52.506;13.462;2023-08-30T11:58:36;2.67;;;2.57;;
8462;SDS011;4268;52.506;13.462;2023-08-30T12:01:02;2.77;;;2.57;;
8462;SDS011;4268;52.506;13.462;2023-08-30T12:03:32;2.80;;;2.60;;
8462;SDS011;4268;52.506;13.462;2023-08-30T12:05:58;2.60;;;2.50;;
8462;SDS011;4268;52.506;13.462;2023-08-30T12:08:25;2.47;;;2.37;;
8462;SDS011;4268;52.506;13.462;2023-08-30T12:10:55;2.73;;;2.53;;
8462;SDS011;4268;52.506;13.462;2023-08-30T12:13:24;2.90;;;2.63;;
8462;SDS011;4268;52.506;13.462;2023-08-30T12:15:54;2.97;;;2.30;;
8462;SDS011;4268;52.506;13.462;2023-08-30T12:18:24;2.50;;;2.30;;
8462;SDS011;4268;52.506;13.462;2023-08-30T12:20:57;2.73;;;2.53;;
8462;SDS011;4268;52.506;13.462;2023-08-30T12:23:28;2.80;;;2.50;;
8462;SDS011;4268;52.506;13.462;2023-08-30T12:28:31;2.50;;;2.40;;
8462;SDS011;4268;52.506;13.462;2023-08-30T12:30:58;2.50;;;2.30;;
8462;SDS011;4268;52.506;13.462;2023-08-30T12:33:24;2.80;;;2.50;;
8462;SDS011;4268;52.506;13.462;2023-08-30T12:35:50;2.60;;;2.40;;
8462;SDS011;4268;52.506;13.462;2023-08-30T12:38:16;2.77;;;2.57;;
8462;SDS011;4268;52.506;13.462;2023-08-30T12:40:46;2.53;;;2.43;;
8462;SDS011;4268;52.506;13.462;2023-08-30T12:43:12;2.57;;;2.37;;
8462;SDS011;4268;52.506;13.462;2023-08-30T12:45:39;2.60;;;2.40;;
8462;SDS011;4268;52.506;13.462;2023-08-30T12:48:05;2.63;;;2.53;;
8462;SDS011;4268;52.506;13.462;2023-08-30T12:50:32;2.70;;;2.50;;
8462;SDS011;4268;52.506;13.462;2023-08-30T12:52:58;2.70;;;2.50;;
8462;SDS011;4268;52.506;13.462;2023-08-30T12:55:23;2.20;;;2.10;;
8462;SDS011;4268;52.506;13.462;2023-08-30T12:57:49;2.37;;;2.27;;
8462;SDS011;4268;52.506;13.462;2023-08-30T13:00:14;2.77;;;2.57;;
8462;SDS011;4268;52.506;13.462;2023-08-30T13:02:40;2.40;;;2.30;;
8462;SDS011;4268;52.506;13.462;2023-08-30T13:05:05;2.73;;;2.53;;
8462;SDS011;4268;52.506;13.462;2023-08-30T13:07:31;2.63;;;2.53;;
8462;SDS011;4268;52.506;13.462;2023-08-30T13:09:57;3.10;;;2.90;;
8462;SDS011;4268;52.506;13.462;2023-08-30T13:12:22;2.97;;;2.60;;
8462;SDS011;4268;52.506;13.462;2023-08-30T13:14:48;3.47;;;2.70;;
8462;SDS011;4268;52.506;13.462;2023-08-30T13:17:13;2.40;;;2.30;;
8462;SDS011;4268;52.506;13.462;2023-08-30T13:19:39;2.73;;;2.53;;
8462;SDS011;4268;52.506;13.462;2023-08-30T13:22:05;3.00;;;2.43;;
8462;SDS011;4268;52.506;13.462;2023-08-30T13:24:30;2.87;;;2.70;;
8462;SDS011;4268;52.506;13.462;2023-08-30T13:26:57;2.60;;;2.50;;
8462;SDS011;4268;52.506;13.462;2023-08-30T13:29:23;2.43;;;2.33;;
8462;SDS011;4268;52.506;13.462;2023-08-30T13:31:48;2.70;;;2.50;;
8462;SDS011;4268;52.506;13.462;2023-08-30T13:34:14;3.00;;;2.83;;
8462;SDS011;4268;52.506;13.462;2023-08-30T13:36:40;3.57;;;2.67;;
8462;SDS011;4268;52.506;13.462;2023-08-30T13:39:06;2.70;;;2.50;;
8462;SDS011;4268;52.506;13.462;2023-08-30T13:41:31;2.83;;;2.63;;
8462;SDS011;4268;52.506;13.462;2023-08-30T13:43:57;2.70;;;2.57;;
8462;SDS011;4268;52.506;13.462;2023-08-30T13:46:22;2.90;;;2.70;;
8462;SDS011;4268;52.506;13.462;2023-08-30T13:48:48;2.73;;;2.53;;
8462;SDS011;4268;52.506;13.462;2023-08-30T13:51:13;8.00;;;7.23;;
8462;SDS011;4268;52.506;13.462;2023-08-30T13:53:39;10.50;;;9.60;;
8462;SDS011;4268;52.506;13.462;2023-08-30T13:56:05;3.30;;;3.10;;
8462;SDS011;4268;52.506;13.462;2023-08-30T13:58:30;2.70;;;2.50;;
8462;SDS011;4268;52.506;13.462;2023-08-30T14:00:56;2.73;;;2.63;;
8462;SDS011;4268;52.506;13.462;2023-08-30T14:03:21;2.90;;;2.70;;
8462;SDS011;4268;52.506;13.462;2023-08-30T14:05:47;2.53;;;2.40;;
8462;SDS011;4268;52.506;13.462;2023-08-30T14:08:12;2.70;;;2.50;;
8462;SDS011;4268;52.506;13.462;2023-08-30T14:10:38;2.80;;;2.60;;
8462;SDS011;4268;52.506;13.462;2023-08-30T14:13:03;3.07;;;2.87;;
8462;SDS011;4268;52.506;13.462;2023-08-30T14:15:30;3.27;;;2.97;;
8462;SDS011;4268;52.506;13.462;2023-08-30T14:17:55;2.90;;;2.80;;
8462;SDS011;4268;52.506;13.462;2023-08-30T14:20:21;2.73;;;2.60;;
8462;SDS011;4268;52.506;13.462;2023-08-30T14:22:46;2.73;;;2.57;;
8462;SDS011;4268;52.506;13.462;2023-08-30T14:25:12;2.83;;;2.70;;
8462;SDS011;4268;52.506;13.462;2023-08-30T14:27:38;3.00;;;2.80;;
8462;SDS011;4268;52.506;13.462;2023-08-30T14:30:04;3.00;;;2.80;;
8462;SDS011;4268;52.506;13.462;2023-08-30T14:32:30;3.50;;;3.20;;
8462;SDS011;4268;52.506;13.462;2023-08-30T14:34:56;3.10;;;2.90;;
8462;SDS011;4268;52.506;13.462;2023-08-30T14:37:22;3.03;;;2.83;;
8462;SDS011;4268;52.506;13.462;2023-08-30T14:39:47;3.57;;;2.90;;
8462;SDS011;4268;52.506;13.462;2023-08-30T14:42:13;3.10;;;2.80;;
8462;SDS011;4268;52.506;13.462;2023-08-30T14:44:38;2.90;;;2.70;;
8462;SDS011;4268;52.506;13.462;2023-08-30T14:47:04;3.37;;;2.80;;
8462;SDS011;4268;52.506;13.462;2023-08-30T14:49:30;3.20;;;3.00;;
8462;SDS011;4268;52.506;13.462;2023-08-30T14:51:57;2.80;;;2.60;;
8462;SDS011;4268;52.506;13.462;2023-08-30T14:54:22;2.93;;;2.67;;
8462;SDS011;4268;52.506;13.462;2023-08-30T14:56:48;3.00;;;2.80;;